sensor_id;sensor_type;location;lat;lon;timestamp;P1;durP1;ratioP1;P2;durP2;ratioP2
10633;SDS011;5365;51.640;8.106;2023-05-07T11:43:54;320.77;;;291.52;;
10633;SDS011;5365;51.640;8.106;2023-05-07T11:46:56;340.45;;;310.63;;
10633;SDS011;5365;51.640;8.106;2023-05-07T11:49:56;346.85;;;316.63;;
10633;SDS011;5365;51.640;8.106;2023-05-07T11:52:56;327.60;;;297.80;;
10633;SDS011;5365;51.640;8.106;2023-05-07T11:55:56;315.83;;;286.67;;
10633;SDS011;5365;51.640;8.106;2023-05-07T11:58:57;301.45;;;272.85;;
10633;SDS011;5365;51.640;8.106;2023-05-07T12:01:57;305.08;;;276.05;;
10633;SDS011;5365;51.640;8.106;2023-05-07T12:04:59;313.45;;;284.50;;
10633;SDS011;5365;51.640;8.106;2023-05-07T12:08:00;329.02;;;299.67;;
10633;SDS011;5365;51.640;8.106;2023-05-07T12:11:00;316.88;;;288.02;;
10633;SDS011;5365;51.640;8.106;2023-05-07T12:14:00;323.50;;;294.33;;
10633;SDS011;5365;51.640;8.106;2023-05-07T12:17:01;313.23;;;284.10;;
10633;SDS011;5365;51.640;8.106;2023-05-07T12:20:04;303.42;;;274.92;;
10633;SDS011;5365;51.640;8.106;2023-05-07T12:23:06;330.13;;;301.02;;
10633;SDS011;5365;51.640;8.106;2023-05-07T12:26:06;315.95;;;287.15;;
10633;SDS011;5365;51.640;8.106;2023-05-07T12:29:06;338.00;;;308.65;;
10633;SDS011;5365;51.640;8.106;2023-05-07T12:32:06;333.48;;;304.58;;
10633;SDS011;5365;51.640;8.106;2023-05-07T12:35:12;380.52;;;350.05;;
10633;SDS011;5365;51.640;8.106;2023-05-07T12:38:13;330.10;;;301.15;;
10633;SDS011;5365;51.640;8.106;2023-05-07T12:41:14;324.05;;;295.25;;
10633;SDS011;5365;51.640;8.106;2023-05-07T12:44:15;323.88;;;294.67;;
10633;SDS011;5365;51.640;8.106;2023-05-07T12:47:15;319.75;;;290.42;;
10633;SDS011;5365;51.640;8.106;2023-05-07T12:50:15;308.77;;;279.83;;
10633;SDS011;5365;51.640;8.106;2023-05-07T12:53:16;288.38;;;260.02;;
10633;SDS011;5365;51.640;8.106;2023-05-07T12:56:16;303.73;;;274.65;;
10633;SDS011;5365;51.640;8.106;2023-05-07T12:59:17;325.40;;;295.77;;
10633;SDS011;5365;51.640;8.106;2023-05-07T13:02:17;318.60;;;289.70;;
10633;SDS011;5365;51.640;8.106;2023-05-07T13:05:17;314.20;;;285.17;;
10633;SDS011;5365;51.640;8.106;2023-05-07T13:08:33;303.80;;;275.30;;
10633;SDS011;5365;51.640;8.106;2023-05-07T13:11:34;284.38;;;256.17;;
10633;SDS011;5365;51.640;8.106;2023-05-07T13:14:34;293.23;;;264.67;;
10633;SDS011;5365;51.640;8.106;2023-05-07T13:17:35;275.70;;;247.57;;
10633;SDS011;5365;51.640;8.106;2023-05-07T13:20:35;270.27;;;241.80;;
10633;SDS011;5365;51.640;8.106;2023-05-07T13:23:35;256.20;;;228.43;;
10633;SDS011;5365;51.640;8.106;2023-05-07T13:26:37;250.37;;;213.07;;
10633;SDS011;5365;51.640;8.106;2023-05-07T13:29:37;249.88;;;209.93;;
10633;SDS011;5365;51.640;8.106;2023-05-07T13:32:37;246.43;;;203.17;;
10633;SDS011;5365;51.640;8.106;2023-05-07T13:35:37;240.37;;;177.83;;
10633;SDS011;5365;51.640;8.106;2023-05-07T13:38:39;249.37;;;197.53;;
10633;SDS011;5365;51.640;8.106;2023-05-07T13:41:39;240.83;;;186.57;;
10633;SDS011;5365;51.640;8.106;2023-05-07T13:44:39;239.60;;;179.20;;
10633;SDS011;5365;51.640;8.106;2023-05-07T13:47:40;243.13;;;178.80;;
10633;SDS011;5365;51.640;8.106;2023-05-07T13:50:40;236.57;;;165.00;;
10633;SDS011;5365;51.640;8.106;2023-05-07T13:53:41;240.70;;;174.37;;
10633;SDS011;5365;51.640;8.106;2023-05-07T13:56:41;237.60;;;159.30;;
10633;SDS011;5365;51.640;8.106;2023-05-07T13:59:42;234.87;;;155.07;;
10633;SDS011;5365;51.640;8.106;2023-05-07T14:02:42;236.43;;;153.17;;
10633;SDS011;5365;51.640;8.106;2023-05-07T14:05:42;236.47;;;156.70;;
10633;SDS011;5365;51.640;8.106;2023-05-07T14:08:42;232.25;;;142.68;;
10633;SDS011;5365;51.640;8.106;2023-05-07T14:11:43;234.53;;;143.30;;
10633;SDS011;5365;51.640;8.106;2023-05-07T14:14:43;230.67;;;139.27;;
10633;SDS011;5365;51.640;8.106;2023-05-07T14:17:43;225.57;;;137.83;;
10633;SDS011;5365;51.640;8.106;2023-05-07T14:20:44;224.00;;;130.60;;
10633;SDS011;5365;51.640;8.106;2023-05-07T14:23:46;229.27;;;141.50;;
10633;SDS011;5365;51.640;8.106;2023-05-07T14:26:47;223.83;;;127.23;;
10633;SDS011;5365;51.640;8.106;2023-05-07T14:29:47;225.90;;;133.63;;
10633;SDS011;5365;51.640;8.106;2023-05-07T14:32:51;224.00;;;130.53;;
10633;SDS011;5365;51.640;8.106;2023-05-07T14:35:51;227.93;;;138.20;;
10633;SDS011;5365;51.640;8.106;2023-05-07T14:38:52;222.68;;;129.90;;
10633;SDS011;5365;51.640;8.106;2023-05-07T14:41:53;223.47;;;127.00;;
10633;SDS011;5365;51.640;8.106;2023-05-07T14:44:54;226.87;;;135.27;;
10633;SDS011;5365;51.640;8.106;2023-05-07T14:47:54;225.00;;;127.33;;
10633;SDS011;5365;51.640;8.106;2023-05-07T14:50:55;226.00;;;135.23;;
10633;SDS011;5365;51.640;8.106;2023-05-07T14:53:56;224.63;;;129.17;;
10633;SDS011;5365;51.640;8.106;2023-05-07T14:56:56;226.90;;;133.40;;
10633;SDS011;5365;51.640;8.106;2023-05-07T14:59:56;223.07;;;128.77;;
10633;SDS011;5365;51.640;8.106;2023-05-07T15:02:57;223.13;;;128.53;;
10633;SDS011;5365;51.640;8.106;2023-05-07T15:06:01;230.97;;;133.40;;
10633;SDS011;5365;51.640;8.106;2023-05-07T15:09:02;223.20;;;125.40;;
10633;SDS011;5365;51.640;8.106;2023-05-07T15:12:03;221.33;;;122.60;;
10633;SDS011;5365;51.640;8.106;2023-05-07T15:15:04;228.57;;;135.30;;
10633;SDS011;5365;51.640;8.106;2023-05-07T15:18:04;228.50;;;138.73;;
10633;SDS011;5365;51.640;8.106;2023-05-07T15:21:04;225.97;;;132.37;;
10633;SDS011;5365;51.640;8.106;2023-05-07T15:24:05;225.60;;;131.77;;
10633;SDS011;5365;51.640;8.106;2023-05-07T15:27:05;226.03;;;137.53;;
10633;SDS011;5365;51.640;8.106;2023-05-07T15:30:05;225.70;;;136.73;;
10633;SDS011;5365;51.640;8.106;2023-05-07T15:33:06;222.07;;;126.53;;
10633;SDS011;5365;51.640;8.106;2023-05-07T15:36:06;228.87;;;138.07;;
10633;SDS011;5365;51.640;8.106;2023-05-07T15:39:06;228.83;;;137.90;;
10633;SDS011;5365;51.640;8.106;2023-05-07T15:42:06;229.50;;;143.63;;
10633;SDS011;5365;51.640;8.106;2023-05-07T15:45:07;232.17;;;136.83;;
10633;SDS011;5365;51.640;8.106;2023-05-07T15:48:08;229.63;;;144.73;;
10633;SDS011;5365;51.640;8.106;2023-05-07T15:51:08;224.87;;;132.20;;
10633;SDS011;5365;51.640;8.106;2023-05-07T15:54:09;228.40;;;138.20;;
10633;SDS011;5365;51.640;8.106;2023-05-07T15:57:09;227.30;;;134.00;;
10633;SDS011;5365;51.640;8.106;2023-05-07T16:00:10;226.67;;;135.50;;
10633;SDS011;5365;51.640;8.106;2023-05-07T16:03:11;228.77;;;144.97;;
10633;SDS011;5365;51.640;8.106;2023-05-07T16:06:11;227.73;;;136.90;;
10633;SDS011;5365;51.640;8.106;2023-05-07T16:09:12;228.23;;;136.37;;
10633;SDS011;5365;51.640;8.106;2023-05-07T16:12:12;227.67;;;133.30;;
10633;SDS011;5365;51.640;8.106;2023-05-07T16:15:12;226.40;;;134.33;;
10633;SDS011;5365;51.640;8.106;2023-05-07T16:18:13;228.07;;;133.77;;
10633;SDS011;5365;51.640;8.106;2023-05-07T16:21:16;226.43;;;130.33;;
10633;SDS011;5365;51.640;8.106;2023-05-07T16:24:16;228.03;;;128.00;;
10633;SDS011;5365;51.640;8.106;2023-05-07T16:27:16;227.83;;;122.70;;
10633;SDS011;5365;51.640;8.106;2023-05-07T16:30:17;224.03;;;119.60;;
10633;SDS011;5365;51.640;8.106;2023-05-07T16:33:17;225.57;;;124.77;;
10633;SDS011;5365;51.640;8.106;2023-05-07T16:36:17;223.03;;;116.13;;
10633;SDS011;5365;51.640;8.106;2023-05-07T16:39:18;224.00;;;115.93;;
10633;SDS011;5365;51.640;8.106;2023-05-07T16:42:18;222.03;;;114.00;;
10633;SDS011;5365;51.640;8.106;2023-05-07T16:45:18;220.37;;;107.43;;
10633;SDS011;5365;51.640;8.106;2023-05-07T16:48:19;220.80;;;106.13;;
10633;SDS011;5365;51.640;8.106;2023-05-07T16:51:19;217.87;;;101.43;;
10633;SDS011;5365;51.640;8.106;2023-05-07T16:54:19;223.43;;;115.37;;
10633;SDS011;5365;51.640;8.106;2023-05-07T16:57:19;222.47;;;108.23;;
10633;SDS011;5365;51.640;8.106;2023-05-07T17:00:19;220.00;;;98.17;;
10633;SDS011;5365;51.640;8.106;2023-05-07T17:03:20;221.50;;;107.00;;
10633;SDS011;5365;51.640;8.106;2023-05-07T17:06:20;219.80;;;102.73;;
10633;SDS011;5365;51.640;8.106;2023-05-07T17:09:20;219.40;;;94.67;;
10633;SDS011;5365;51.640;8.106;2023-05-07T17:12:20;223.57;;;106.90;;
10633;SDS011;5365;51.640;8.106;2023-05-07T17:15:21;223.70;;;103.67;;
10633;SDS011;5365;51.640;8.106;2023-05-07T17:18:21;222.73;;;105.65;;
10633;SDS011;5365;51.640;8.106;2023-05-07T17:21:21;223.77;;;105.57;;
10633;SDS011;5365;51.640;8.106;2023-05-07T17:24:22;225.03;;;106.63;;
10633;SDS011;5365;51.640;8.106;2023-05-07T17:27:22;225.40;;;102.87;;
10633;SDS011;5365;51.640;8.106;2023-05-07T17:30:22;221.73;;;98.00;;
10633;SDS011;5365;51.640;8.106;2023-05-07T17:33:22;217.50;;;95.17;;
10633;SDS011;5365;51.640;8.106;2023-05-07T17:36:22;221.07;;;89.47;;
10633;SDS011;5365;51.640;8.106;2023-05-07T17:39:23;217.97;;;91.40;;
10633;SDS011;5365;51.640;8.106;2023-05-07T17:42:23;219.80;;;91.17;;
10633;SDS011;5365;51.640;8.106;2023-05-07T17:45:23;230.30;;;90.27;;
10633;SDS011;5365;51.640;8.106;2023-05-07T17:48:24;219.30;;;89.07;;
10633;SDS011;5365;51.640;8.106;2023-05-07T17:51:24;218.40;;;92.33;;
10633;SDS011;5365;51.640;8.106;2023-05-07T17:54:25;220.73;;;92.90;;
10633;SDS011;5365;51.640;8.106;2023-05-07T17:57:25;216.80;;;88.27;;
10633;SDS011;5365;51.640;8.106;2023-05-07T18:00:26;220.90;;;90.87;;
10633;SDS011;5365;51.640;8.106;2023-05-07T18:03:27;216.27;;;82.47;;
10633;SDS011;5365;51.640;8.106;2023-05-07T18:06:28;217.50;;;88.10;;
10633;SDS011;5365;51.640;8.106;2023-05-07T18:09:28;218.53;;;89.10;;
10633;SDS011;5365;51.640;8.106;2023-05-07T18:12:28;217.10;;;88.27;;
10633;SDS011;5365;51.640;8.106;2023-05-07T18:15:28;216.20;;;88.17;;
10633;SDS011;5365;51.640;8.106;2023-05-07T18:18:29;220.83;;;89.70;;
10633;SDS011;5365;51.640;8.106;2023-05-07T18:21:30;211.33;;;82.80;;
10633;SDS011;5365;51.640;8.106;2023-05-07T18:24:31;217.07;;;88.53;;
10633;SDS011;5365;51.640;8.106;2023-05-07T18:27:31;220.20;;;88.23;;
10633;SDS011;5365;51.640;8.106;2023-05-07T18:30:32;220.87;;;89.97;;
10633;SDS011;5365;51.640;8.106;2023-05-07T18:33:32;218.37;;;85.00;;
10633;SDS011;5365;51.640;8.106;2023-05-07T18:36:32;221.47;;;89.57;;
10633;SDS011;5365;51.640;8.106;2023-05-07T18:39:33;218.83;;;83.37;;
10633;SDS011;5365;51.640;8.106;2023-05-07T18:42:34;226.63;;;92.90;;
10633;SDS011;5365;51.640;8.106;2023-05-07T18:45:34;221.57;;;88.13;;
10633;SDS011;5365;51.640;8.106;2023-05-07T18:48:34;221.80;;;89.77;;
10633;SDS011;5365;51.640;8.106;2023-05-07T18:51:34;220.73;;;89.60;;
10633;SDS011;5365;51.640;8.106;2023-05-07T18:54:35;219.30;;;84.03;;
10633;SDS011;5365;51.640;8.106;2023-05-07T18:57:35;224.87;;;91.20;;
10633;SDS011;5365;51.640;8.106;2023-05-07T19:00:35;218.90;;;87.77;;
10633;SDS011;5365;51.640;8.106;2023-05-07T19:03:35;220.18;;;83.57;;
10633;SDS011;5365;51.640;8.106;2023-05-07T19:06:36;217.20;;;82.03;;
10633;SDS011;5365;51.640;8.106;2023-05-07T19:09:36;219.50;;;85.03;;
10633;SDS011;5365;51.640;8.106;2023-05-07T19:12:36;219.73;;;85.73;;
10633;SDS011;5365;51.640;8.106;2023-05-07T19:15:36;219.53;;;84.10;;
10633;SDS011;5365;51.640;8.106;2023-05-07T19:18:36;225.43;;;87.32;;
10633;SDS011;5365;51.640;8.106;2023-05-07T19:21:37;218.63;;;84.10;;
10633;SDS011;5365;51.640;8.106;2023-05-07T19:24:37;224.13;;;86.77;;
10633;SDS011;5365;51.640;8.106;2023-05-07T19:27:37;221.50;;;84.40;;
10633;SDS011;5365;51.640;8.106;2023-05-07T19:30:38;222.30;;;87.43;;
10633;SDS011;5365;51.640;8.106;2023-05-07T19:33:39;218.47;;;85.57;;
10633;SDS011;5365;51.640;8.106;2023-05-07T19:36:39;221.27;;;83.53;;
10633;SDS011;5365;51.640;8.106;2023-05-07T19:39:39;217.83;;;84.57;;
10633;SDS011;5365;51.640;8.106;2023-05-07T19:42:39;219.70;;;83.90;;
10633;SDS011;5365;51.640;8.106;2023-05-07T19:45:40;216.43;;;81.23;;
10633;SDS011;5365;51.640;8.106;2023-05-07T19:48:42;221.37;;;84.30;;
10633;SDS011;5365;51.640;8.106;2023-05-07T19:51:43;218.93;;;83.60;;
10633;SDS011;5365;51.640;8.106;2023-05-07T19:54:43;217.37;;;80.60;;
10633;SDS011;5365;51.640;8.106;2023-05-07T19:57:43;219.20;;;84.47;;
10633;SDS011;5365;51.640;8.106;2023-05-07T20:00:48;214.63;;;77.07;;
10633;SDS011;5365;51.640;8.106;2023-05-07T20:03:48;214.23;;;76.10;;
10633;SDS011;5365;51.640;8.106;2023-05-07T20:06:49;218.73;;;80.67;;
10633;SDS011;5365;51.640;8.106;2023-05-07T20:09:49;213.70;;;77.13;;
10633;SDS011;5365;51.640;8.106;2023-05-07T20:12:49;216.97;;;80.37;;
10633;SDS011;5365;51.640;8.106;2023-05-07T20:15:49;215.83;;;79.20;;
10633;SDS011;5365;51.640;8.106;2023-05-07T20:18:50;218.17;;;82.40;;
10633;SDS011;5365;51.640;8.106;2023-05-07T20:21:50;218.60;;;81.57;;
10633;SDS011;5365;51.640;8.106;2023-05-07T20:24:51;219.07;;;83.57;;
10633;SDS011;5365;51.640;8.106;2023-05-07T20:27:51;222.13;;;81.73;;
10633;SDS011;5365;51.640;8.106;2023-05-07T20:30:52;213.70;;;77.13;;
10633;SDS011;5365;51.640;8.106;2023-05-07T20:33:52;215.47;;;75.90;;
10633;SDS011;5365;51.640;8.106;2023-05-07T20:36:53;215.20;;;77.13;;
10633;SDS011;5365;51.640;8.106;2023-05-07T20:39:53;215.37;;;80.47;;
10633;SDS011;5365;51.640;8.106;2023-05-07T20:42:53;215.00;;;79.30;;
10633;SDS011;5365;51.640;8.106;2023-05-07T20:46:00;213.07;;;75.67;;
10633;SDS011;5365;51.640;8.106;2023-05-07T20:49:01;217.63;;;78.03;;
10633;SDS011;5365;51.640;8.106;2023-05-07T20:52:03;215.33;;;79.40;;
10633;SDS011;5365;51.640;8.106;2023-05-07T20:55:04;217.93;;;75.47;;
10633;SDS011;5365;51.640;8.106;2023-05-07T20:58:05;218.10;;;78.77;;
10633;SDS011;5365;51.640;8.106;2023-05-07T21:01:05;216.80;;;74.63;;
10633;SDS011;5365;51.640;8.106;2023-05-07T21:04:05;215.00;;;78.43;;
10633;SDS011;5365;51.640;8.106;2023-05-07T21:07:05;219.43;;;78.93;;
10633;SDS011;5365;51.640;8.106;2023-05-07T21:10:06;220.87;;;78.53;;
10633;SDS011;5365;51.640;8.106;2023-05-07T21:13:06;214.47;;;76.67;;
10633;SDS011;5365;51.640;8.106;2023-05-07T21:16:07;219.43;;;77.87;;
10633;SDS011;5365;51.640;8.106;2023-05-07T21:19:08;215.47;;;76.53;;
10633;SDS011;5365;51.640;8.106;2023-05-07T21:22:09;214.30;;;76.63;;
10633;SDS011;5365;51.640;8.106;2023-05-07T21:25:10;216.83;;;78.03;;
10633;SDS011;5365;51.640;8.106;2023-05-07T21:28:10;213.30;;;74.40;;
10633;SDS011;5365;51.640;8.106;2023-05-07T21:31:10;213.67;;;74.07;;
10633;SDS011;5365;51.640;8.106;2023-05-07T21:34:10;214.97;;;78.27;;
10633;SDS011;5365;51.640;8.106;2023-05-07T21:37:11;213.07;;;75.20;;
10633;SDS011;5365;51.640;8.106;2023-05-07T21:40:12;217.53;;;77.10;;
10633;SDS011;5365;51.640;8.106;2023-05-07T21:43:12;215.67;;;78.17;;
10633;SDS011;5365;51.640;8.106;2023-05-07T21:46:12;214.23;;;75.70;;
10633;SDS011;5365;51.640;8.106;2023-05-07T21:49:12;215.43;;;76.27;;
10633;SDS011;5365;51.640;8.106;2023-05-07T21:52:13;216.63;;;78.67;;
10633;SDS011;5365;51.640;8.106;2023-05-07T21:55:14;211.10;;;75.07;;
10633;SDS011;5365;51.640;8.106;2023-05-07T21:58:16;216.90;;;77.07;;
10633;SDS011;5365;51.640;8.106;2023-05-07T22:01:16;215.90;;;79.83;;
10633;SDS011;5365;51.640;8.106;2023-05-07T22:04:17;215.37;;;79.10;;
10633;SDS011;5365;51.640;8.106;2023-05-07T22:07:17;213.83;;;74.23;;
10633;SDS011;5365;51.640;8.106;2023-05-07T22:10:17;212.90;;;71.75;;
10633;SDS011;5365;51.640;8.106;2023-05-07T22:13:21;219.20;;;81.00;;
10633;SDS011;5365;51.640;8.106;2023-05-07T22:16:21;213.63;;;72.07;;
10633;SDS011;5365;51.640;8.106;2023-05-07T22:19:21;214.85;;;74.50;;
10633;SDS011;5365;51.640;8.106;2023-05-07T22:22:22;210.47;;;68.93;;
10633;SDS011;5365;51.640;8.106;2023-05-07T22:25:23;213.27;;;71.40;;
10633;SDS011;5365;51.640;8.106;2023-05-07T22:28:23;209.67;;;67.07;;
10633;SDS011;5365;51.640;8.106;2023-05-07T22:31:23;215.17;;;72.77;;
10633;SDS011;5365;51.640;8.106;2023-05-07T22:34:23;208.40;;;69.13;;
10633;SDS011;5365;51.640;8.106;2023-05-07T22:37:23;211.47;;;70.23;;
10633;SDS011;5365;51.640;8.106;2023-05-07T22:40:24;212.10;;;69.90;;
10633;SDS011;5365;51.640;8.106;2023-05-07T22:43:24;213.25;;;71.72;;
10633;SDS011;5365;51.640;8.106;2023-05-07T22:46:24;212.00;;;73.43;;
10633;SDS011;5365;51.640;8.106;2023-05-07T22:49:24;208.50;;;64.37;;
10633;SDS011;5365;51.640;8.106;2023-05-07T22:52:25;212.43;;;70.03;;
10633;SDS011;5365;51.640;8.106;2023-05-07T22:55:25;211.47;;;72.00;;
10633;SDS011;5365;51.640;8.106;2023-05-07T22:58:26;212.03;;;68.87;;
10633;SDS011;5365;51.640;8.106;2023-05-07T23:01:26;208.90;;;69.23;;
10633;SDS011;5365;51.640;8.106;2023-05-07T23:04:26;214.77;;;71.03;;
10633;SDS011;5365;51.640;8.106;2023-05-07T23:07:26;210.70;;;68.53;;
10633;SDS011;5365;51.640;8.106;2023-05-07T23:10:27;211.13;;;69.63;;
10633;SDS011;5365;51.640;8.106;2023-05-07T23:13:27;210.70;;;70.67;;
10633;SDS011;5365;51.640;8.106;2023-05-07T23:16:27;212.10;;;69.17;;
10633;SDS011;5365;51.640;8.106;2023-05-07T23:19:28;209.63;;;67.50;;
10633;SDS011;5365;51.640;8.106;2023-05-07T23:22:28;211.23;;;70.03;;
10633;SDS011;5365;51.640;8.106;2023-05-07T23:25:28;211.90;;;70.33;;
10633;SDS011;5365;51.640;8.106;2023-05-07T23:28:28;214.80;;;72.50;;
10633;SDS011;5365;51.640;8.106;2023-05-07T23:31:29;214.27;;;74.77;;
10633;SDS011;5365;51.640;8.106;2023-05-07T23:34:29;213.20;;;70.07;;
10633;SDS011;5365;51.640;8.106;2023-05-07T23:37:29;214.77;;;70.25;;
10633;SDS011;5365;51.640;8.106;2023-05-07T23:40:29;217.33;;;72.07;;
10633;SDS011;5365;51.640;8.106;2023-05-07T23:43:29;212.23;;;70.63;;
10633;SDS011;5365;51.640;8.106;2023-05-07T23:46:30;210.47;;;68.07;;
10633;SDS011;5365;51.640;8.106;2023-05-07T23:49:30;214.77;;;71.97;;
10633;SDS011;5365;51.640;8.106;2023-05-07T23:52:30;208.53;;;68.50;;
10633;SDS011;5365;51.640;8.106;2023-05-07T23:55:30;214.67;;;73.80;;
10633;SDS011;5365;51.640;8.106;2023-05-07T23:58:31;213.40;;;69.87;;
